Time;durP1;ratioP1;P1;durP2;ratioP2;P2;SDS_P1;SDS_P2;PMS_P1;PMS_P2;Temp;Humidity;BMP_temperature;BMP_pressure;BME280_temperature;BME280_humidity;BME280_pressure;Samples;Min_cycle;Max_cycle;Signal;HPM_P1;HPM_P2
2022/10/03 00:00:54;;;;;;;17.50;7.73;;;9.20;99.90;;;;;;5114461;28;20204;-64
2022/10/03 00:03:32;;;;;;;17.73;7.50;;;9.30;99.90;;;;;;5116091;28;20241;-64
2022/10/03 00:06:10;;;;;;;19.17;7.83;;;9.30;99.90;;;;;;5114404;28;20648;-64
2022/10/03 00:09:03;;;;;;;20.47;8.13;;;9.30;99.90;;;;;;5095154;28;20184;-65
2022/10/03 00:11:54;;;;;;;20.37;8.67;;;9.30;99.90;;;;;;5095048;28;20264;-64
2022/10/03 00:14:46;;;;;;;18.80;8.47;;;9.30;99.90;;;;;;5095439;28;20622;-64
2022/10/03 00:17:25;;;;;;;19.03;7.60;;;9.30;99.90;;;;;;5095148;28;20613;-64
2022/10/03 00:20:35;;;;;;;22.97;8.67;;;9.30;99.90;;;;;;5095064;28;20172;-65
2022/10/03 00:23:17;;;;;;;20.57;9.27;;;9.30;99.90;;;;;;5094876;28;20200;-65
2022/10/03 00:26:25;;;;;;;19.87;7.80;;;9.30;99.90;;;;;;5095045;28;20157;-64
2022/10/03 00:29:06;;;;;;;16.80;7.50;;;9.30;99.90;;;;;;5108256;28;20321;-64
2022/10/03 00:31:56;;;;;;;22.90;8.33;;;9.20;99.90;;;;;;5115496;28;20539;-64
2022/10/03 00:34:31;;;;;;;17.13;7.10;;;9.20;99.90;;;;;;5115997;28;20161;-64
2022/10/03 00:37:26;;;;;;;23.90;8.23;;;9.20;99.90;;;;;;5123523;27;20243;-64
2022/10/03 00:40:12;;;;;;;20.30;8.07;;;9.10;99.90;;;;;;5135615;27;20193;-64
2022/10/03 00:43:15;;;;;;;18.53;7.77;;;9.00;99.90;;;;;;5134608;27;20663;-65
2022/10/03 00:45:48;;;;;;;19.40;8.20;;;9.00;99.90;;;;;;5135484;27;20164;-64
2022/10/03 00:48:34;;;;;;;23.30;8.80;;;9.00;99.90;;;;;;5134292;27;20168;-65
2022/10/03 00:51:11;;;;;;;22.00;8.23;;;9.00;99.90;;;;;;5113887;27;20212;-64
2022/10/03 00:53:52;;;;;;;23.37;8.60;;;9.00;99.90;;;;;;5133899;27;20180;-65
2022/10/03 00:56:47;;;;;;;20.87;8.97;;;9.10;99.90;;;;;;5135198;27;20262;-64
2022/10/03 00:59:33;;;;;;;18.87;7.93;;;9.00;99.90;;;;;;5117163;27;20644;-65
2022/10/03 01:02:21;;;;;;;16.03;8.33;;;9.00;99.90;;;;;;5114797;28;20668;-64
2022/10/03 01:05:35;;;;;;;19.00;7.97;;;9.00;99.90;;;;;;5113490;28;20189;-64
2022/10/03 01:08:25;;;;;;;21.67;8.57;;;9.00;99.90;;;;;;5130477;27;20190;-65
2022/10/03 01:11:20;;;;;;;17.77;8.80;;;9.10;99.90;;;;;;5135618;27;20672;-64
2022/10/03 01:13:52;;;;;;;18.57;8.40;;;9.10;99.90;;;;;;5133743;27;20167;-64
2022/10/03 01:16:35;;;;;;;20.00;9.00;;;9.10;99.90;;;;;;5134911;27;20206;-64
2022/10/03 01:19:35;;;;;;;20.93;8.40;;;9.20;99.90;;;;;;5133717;27;20160;-64
2022/10/03 01:22:31;;;;;;;25.77;9.63;;;9.10;99.90;;;;;;5135292;27;20656;-64
2022/10/03 01:25:09;;;;;;;24.07;8.83;;;9.20;99.90;;;;;;5133390;27;20175;-64
2022/10/03 01:31:09;;;;;;;20.17;9.07;;;9.20;99.90;;;;;;5114326;28;20203;-64
2022/10/03 01:33:41;;;;;;;22.87;9.00;;;9.20;99.90;;;;;;5114517;28;20153;-64
2022/10/03 01:36:19;;;;;;;20.67;9.17;;;9.20;99.90;;;;;;5115300;27;20172;-64
2022/10/03 01:38:56;;;;;;;21.67;9.40;;;9.10;99.90;;;;;;5134689;27;20155;-64
2022/10/03 01:41:59;;;;;;;25.73;9.57;;;9.20;99.90;;;;;;5134754;27;20698;-64
2022/10/03 01:45:13;;;;;;;26.03;9.00;;;9.20;99.90;;;;;;5133316;27;20201;-64
2022/10/03 01:48:00;;;;;;;19.63;8.03;;;9.20;99.90;;;;;;5134736;27;20243;-64
2022/10/03 01:50:35;;;;;;;20.67;8.70;;;9.20;99.90;;;;;;5134556;27;20195;-64
2022/10/03 01:53:25;;;;;;;27.53;8.83;;;9.10;99.90;;;;;;5134350;27;20237;-65
2022/10/03 01:56:07;;;;;;;26.80;8.80;;;9.10;99.90;;;;;;5134505;27;20156;-64
2022/10/03 01:58:42;;;;;;;14.20;7.37;;;9.10;99.90;;;;;;5123460;27;20180;-64
2022/10/03 02:01:10;;;;;;;20.30;9.37;;;9.10;99.90;;;;;;5113690;28;20267;-64
2022/10/03 02:03:51;;;;;;;18.57;8.63;;;9.10;99.90;;;;;;5113769;28;20199;-64
2022/10/03 02:06:34;;;;;;;19.03;8.23;;;9.10;99.90;;;;;;5116359;28;20157;-64
2022/10/03 02:09:58;;;;;;;19.90;7.77;;;9.00;99.90;;;;;;5134395;27;20151;-64
2022/10/03 02:12:37;;;;;;;18.93;8.20;;;9.00;99.90;;;;;;5066863;28;20710;-64
2022/10/03 02:15:48;;;;;;;21.27;8.67;;;9.10;99.90;;;;;;5135759;28;20172;-64
2022/10/03 02:18:22;;;;;;;15.37;8.03;;;9.10;99.90;;;;;;5113467;27;20716;-64
2022/10/03 02:20:55;;;;;;;23.00;8.77;;;9.10;99.90;;;;;;5135470;27;20202;-64
2022/10/03 02:23:44;;;;;;;17.50;8.13;;;9.10;99.90;;;;;;5134814;27;20768;-64
2022/10/03 02:26:28;;;;;;;16.10;8.03;;;9.10;99.90;;;;;;5134532;27;20157;-64
2022/10/03 02:29:10;;;;;;;16.83;7.60;;;9.10;99.90;;;;;;5119999;27;20176;-64
2022/10/03 02:32:02;;;;;;;25.27;8.57;;;9.10;99.90;;;;;;5112197;28;20195;-64
2022/10/03 02:34:39;;;;;;;20.43;8.30;;;9.20;99.90;;;;;;5113915;28;20153;-64
2022/10/03 02:37:35;;;;;;;21.30;8.50;;;9.10;99.90;;;;;;5121392;28;20184;-64
2022/10/03 02:40:30;;;;;;;25.77;8.53;;;9.20;99.90;;;;;;5134144;27;20515;-64
2022/10/03 02:43:30;;;;;;;19.57;8.30;;;9.20;99.90;;;;;;5133706;27;20570;-64
2022/10/03 02:46:17;;;;;;;20.77;7.83;;;9.20;99.90;;;;;;5134324;27;20524;-64
2022/10/03 02:49:12;;;;;;;23.30;9.00;;;9.20;99.90;;;;;;5134162;27;20157;-65
2022/10/03 02:51:52;;;;;;;18.23;8.17;;;9.20;99.90;;;;;;5134170;27;20187;-64
2022/10/03 02:55:05;;;;;;;20.00;8.47;;;9.10;99.90;;;;;;5133986;27;20164;-65
2022/10/03 02:57:49;;;;;;;19.43;8.70;;;9.10;99.90;;;;;;5088496;28;20272;-64
2022/10/03 03:00:37;;;;;;;20.37;8.83;;;9.00;99.90;;;;;;5091021;28;20211;-64
2022/10/03 03:03:52;;;;;;;16.53;8.47;;;9.00;99.90;;;;;;5091466;28;20677;-64
2022/10/03 03:06:33;;;;;;;18.47;7.77;;;9.00;99.90;;;;;;5076457;28;20187;-65
2022/10/03 03:09:16;;;;;;;15.17;8.13;;;9.00;99.90;;;;;;5116668;28;20172;-64
2022/10/03 03:12:14;;;;;;;16.67;8.13;;;8.90;99.90;;;;;;5116750;28;20188;-64
2022/10/03 03:15:24;;;;;;;18.47;8.63;;;9.00;99.90;;;;;;5116744;28;20501;-64
2022/10/03 03:18:10;;;;;;;27.20;8.73;;;8.90;99.90;;;;;;5108322;27;20688;-64
2022/10/03 03:21:00;;;;;;;17.33;7.90;;;8.90;99.90;;;;;;5115240;28;20196;-64
2022/10/03 03:24:00;;;;;;;24.97;9.23;;;8.90;99.90;;;;;;5116361;28;20641;-65
2022/10/03 03:26:44;;;;;;;17.43;8.23;;;8.80;99.90;;;;;;5104562;28;20184;-64
2022/10/03 03:30:02;;;;;;;23.20;8.77;;;8.80;99.90;;;;;;5115188;28;20180;-64
2022/10/03 03:33:06;;;;;;;27.53;9.30;;;8.80;99.90;;;;;;5073628;28;20276;-64
2022/10/03 03:35:47;;;;;;;23.07;9.03;;;8.80;99.90;;;;;;5003896;28;20267;-65
2022/10/03 03:38:38;;;;;;;21.97;9.13;;;8.80;99.90;;;;;;5085428;28;20185;-65
2022/10/03 03:41:35;;;;;;;19.37;9.77;;;8.70;99.90;;;;;;5095685;28;20231;-65
2022/10/03 03:44:23;;;;;;;17.37;9.80;;;8.80;99.90;;;;;;5095729;28;20242;-64
2022/10/03 03:47:07;;;;;;;20.77;9.90;;;8.70;99.90;;;;;;5094461;28;20577;-64
2022/10/03 03:49:59;;;;;;;29.37;10.20;;;8.70;99.90;;;;;;5095586;28;20162;-64
2022/10/03 03:52:46;;;;;;;23.93;9.73;;;8.60;99.90;;;;;;5095679;28;20165;-64
2022/10/03 03:55:13;;;;;;;26.73;10.00;;;8.60;99.90;;;;;;5094246;28;20310;-64
2022/10/03 03:58:03;;;;;;;22.10;9.20;;;8.70;99.90;;;;;;5098916;28;20666;-64
2022/10/03 04:00:52;;;;;;;24.23;10.20;;;8.70;99.90;;;;;;5116305;27;20192;-64
2022/10/03 04:03:36;;;;;;;18.77;9.77;;;8.60;99.90;;;;;;5116085;28;20661;-64
2022/10/03 04:06:08;;;;;;;22.70;8.83;;;8.60;99.90;;;;;;5114886;27;20678;-65
2022/10/03 04:08:46;;;;;;;30.13;10.73;;;8.60;99.90;;;;;;5135091;27;20632;-64
2022/10/03 04:11:48;;;;;;;18.07;10.03;;;8.60;99.90;;;;;;5136360;27;20191;-64
2022/10/03 04:14:35;;;;;;;23.73;10.70;;;8.50;99.90;;;;;;5113041;27;20662;-64
2022/10/03 04:20:13;;;;;;;20.60;10.03;;;8.50;99.90;;;;;;5136659;27;20167;-64
2022/10/03 04:22:48;;;;;;;22.27;9.73;;;8.50;99.90;;;;;;5135899;27;20223;-64
2022/10/03 04:25:36;;;;;;;22.13;10.43;;;8.50;99.90;;;;;;5134471;27;20167;-64
2022/10/03 04:28:31;;;;;;;26.70;10.67;;;8.50;99.90;;;;;;5129285;27;20208;-65
2022/10/03 04:30:58;;;;;;;22.60;11.00;;;8.50;99.90;;;;;;5115213;28;20739;-64
2022/10/03 04:33:30;;;;;;;24.27;10.93;;;8.50;99.90;;;;;;5115223;28;20175;-64
2022/10/03 04:36:28;;;;;;;30.30;11.00;;;8.50;99.90;;;;;;5115036;28;20168;-64
2022/10/03 04:39:20;;;;;;;22.67;12.00;;;8.50;99.90;;;;;;5093324;28;20625;-64
2022/10/03 04:42:12;;;;;;;25.50;12.03;;;8.60;99.90;;;;;;5094493;28;20690;-64
2022/10/03 04:45:09;;;;;;;22.37;10.93;;;8.60;99.90;;;;;;5094718;28;20477;-64
2022/10/03 04:47:52;;;;;;;26.67;11.27;;;8.70;99.90;;;;;;5095056;28;20180;-64
2022/10/03 04:50:34;;;;;;;26.20;12.07;;;8.70;99.90;;;;;;5094633;28;20657;-64
2022/10/03 04:53:24;;;;;;;22.10;11.37;;;8.70;99.90;;;;;;5094616;28;20169;-64
2022/10/03 04:56:17;;;;;;;27.27;13.43;;;8.70;99.90;;;;;;5094639;28;20158;-64
2022/10/03 04:58:55;;;;;;;25.30;11.70;;;8.80;99.90;;;;;;5106616;28;20184;-64
2022/10/03 05:01:41;;;;;;;26.13;12.53;;;8.80;99.90;;;;;;5114636;28;20275;-64
2022/10/03 05:04:28;;;;;;;32.27;12.00;;;8.80;99.90;;;;;;5113312;28;20299;-64
2022/10/03 05:07:09;;;;;;;30.00;13.13;;;8.70;99.90;;;;;;5122245;27;20172;-64
2022/10/03 05:10:10;;;;;;;29.17;12.50;;;8.80;99.90;;;;;;5134908;27;20172;-64
2022/10/03 05:12:38;;;;;;;26.40;13.10;;;8.80;99.90;;;;;;5111211;27;20188;-64
2022/10/03 05:15:15;;;;;;;26.73;11.80;;;8.80;99.90;;;;;;5134863;27;20179;-64
2022/10/03 05:18:13;;;;;;;23.93;11.97;;;8.80;99.90;;;;;;5135367;27;20159;-64
2022/10/03 05:21:06;;;;;;;31.33;12.90;;;8.80;99.90;;;;;;5133736;27;20223;-64
2022/10/03 05:23:51;;;;;;;26.97;11.90;;;8.80;99.90;;;;;;5134529;27;20187;-65
2022/10/03 05:26:38;;;;;;;30.43;13.90;;;8.80;99.90;;;;;;5133489;27;20168;-64
2022/10/03 05:29:23;;;;;;;30.03;13.93;;;8.80;99.90;;;;;;5118795;27;20172;-64
2022/10/03 05:32:16;;;;;;;24.60;12.37;;;8.90;99.90;;;;;;5112813;28;20669;-64
2022/10/03 05:35:01;;;;;;;28.10;13.60;;;8.90;99.90;;;;;;5114130;28;20191;-64
2022/10/03 05:37:26;;;;;;;28.33;12.83;;;8.90;99.90;;;;;;5126495;27;20209;-64
2022/10/03 05:39:55;;;;;;;27.17;13.30;;;8.90;99.90;;;;;;5134281;27;20713;-65
2022/10/03 05:42:49;;;;;;;33.80;14.03;;;8.90;99.90;;;;;;5132817;27;20240;-64
2022/10/03 05:45:30;;;;;;;24.80;13.37;;;8.90;99.90;;;;;;5134395;27;20629;-64
2022/10/03 05:48:20;;;;;;;29.23;13.47;;;8.90;99.90;;;;;;5134353;27;20608;-64
2022/10/03 05:51:32;;;;;;;27.00;12.50;;;8.90;99.90;;;;;;5132815;27;20195;-65
2022/10/03 05:54:04;;;;;;;32.30;13.30;;;8.90;99.90;;;;;;5134357;28;20192;-65
2022/10/03 05:56:54;;;;;;;26.90;12.57;;;9.00;99.90;;;;;;5132960;28;20183;-65
2022/10/03 05:59:42;;;;;;;29.90;14.27;;;9.00;99.90;;;;;;5116558;27;20544;-65
2022/10/03 06:02:31;;;;;;;31.77;15.10;;;9.00;99.90;;;;;;5113815;28;20199;-65
2022/10/03 06:05:15;;;;;;;32.53;15.37;;;9.00;99.90;;;;;;5113581;28;20184;-65
2022/10/03 06:08:10;;;;;;;27.47;13.60;;;9.00;99.90;;;;;;5128092;28;20259;-65
2022/10/03 06:10:56;;;;;;;28.50;14.00;;;9.00;99.90;;;;;;5132640;28;20278;-65
2022/10/03 06:13:31;;;;;;;32.63;16.17;;;9.00;99.90;;;;;;5134473;27;20182;-65
2022/10/03 06:16:12;;;;;;;31.83;15.20;;;9.00;99.90;;;;;;5134148;28;20198;-65
2022/10/03 06:18:56;;;;;;;34.83;15.97;;;9.00;99.90;;;;;;5134308;27;20164;-65
2022/10/03 06:21:48;;;;;;;31.40;15.20;;;9.00;99.90;;;;;;5134140;27;20195;-65
2022/10/03 06:24:51;;;;;;;28.70;15.07;;;9.00;99.90;;;;;;5133882;27;20248;-64
2022/10/03 06:28:07;;;;;;;38.97;15.60;;;9.10;99.90;;;;;;5133742;28;20691;-65
2022/10/03 06:31:12;;;;;;;31.97;15.57;;;9.00;99.90;;;;;;5112355;28;20199;-68
2022/10/03 06:34:11;;;;;;;29.50;14.77;;;9.00;99.90;;;;;;5113824;28;20165;-68
2022/10/03 06:36:48;;;;;;;32.00;16.67;;;9.00;99.90;;;;;;5119893;28;20203;-73
2022/10/03 06:39:51;;;;;;;34.07;16.53;;;9.10;99.90;;;;;;5133003;28;20266;-74
2022/10/03 06:42:38;;;;;;;35.37;17.07;;;9.10;99.90;;;;;;5136329;27;20201;-70
2022/10/03 06:45:10;;;;;;;33.87;16.63;;;9.10;99.90;;;;;;5138237;27;20160;-70
2022/10/03 06:48:02;;;;;;;30.93;16.17;;;9.20;99.90;;;;;;5136621;27;20168;-70
2022/10/03 06:50:53;;;;;;;35.97;16.97;;;9.30;99.90;;;;;;5136420;27;20282;-70
2022/10/03 06:53:43;;;;;;;40.57;17.30;;;9.40;99.90;;;;;;5137997;27;20168;-70
2022/10/03 06:56:37;;;;;;;29.33;15.27;;;9.60;99.90;;;;;;5137674;27;20196;-70
2022/10/03 06:59:46;;;;;;;36.63;16.23;;;9.60;99.90;;;;;;5122224;27;20176;-70
2022/10/03 07:02:45;;;;;;;31.07;14.87;;;9.60;99.90;;;;;;5107399;28;20218;-70
2022/10/03 07:05:19;;;;;;;33.73;16.53;;;9.60;99.90;;;;;;5117094;28;20185;-71
2022/10/03 07:08:05;;;;;;;35.87;15.40;;;9.60;99.90;;;;;;5132606;27;20317;-71
2022/10/03 07:10:39;;;;;;;30.60;15.50;;;9.50;99.90;;;;;;5136325;27;20253;-71
2022/10/03 07:13:26;;;;;;;35.90;15.43;;;9.50;99.90;;;;;;5137631;27;20167;-71
2022/10/03 07:16:30;;;;;;;30.93;15.53;;;9.50;99.90;;;;;;5137464;27;20155;-70
2022/10/03 07:19:03;;;;;;;30.80;16.57;;;9.40;99.90;;;;;;5082483;27;20649;-70
2022/10/03 07:21:58;;;;;;;38.87;16.60;;;9.40;99.90;;;;;;5137485;27;20188;-70
2022/10/03 07:24:55;;;;;;;28.43;16.37;;;9.50;99.90;;;;;;5135910;27;20200;-70
2022/10/03 07:27:33;;;;;;;29.27;14.43;;;9.60;99.90;;;;;;5136391;27;20164;-70
2022/10/03 07:30:18;;;;;;;40.07;17.47;;;9.60;99.90;;;;;;5116914;27;20607;-71
2022/10/03 07:33:06;;;;;;;31.63;16.43;;;9.70;99.90;;;;;;5116883;27;20662;-71
2022/10/03 07:39:01;;;;;;;38.03;15.97;;;10.10;99.90;;;;;;5096083;28;20576;-66
2022/10/03 07:41:45;;;;;;;29.77;16.60;;;10.40;99.90;;;;;;5096042;28;20300;-71
2022/10/03 07:44:30;;;;;;;37.70;16.00;;;10.70;99.90;;;;;;5096213;28;20185;-71
2022/10/03 07:47:09;;;;;;;34.70;15.90;;;11.00;99.90;;;;;;5094796;28;20172;-71
2022/10/03 07:50:03;;;;;;;30.17;15.10;;;11.00;99.90;;;;;;5094681;28;20549;-66
2022/10/03 07:52:56;;;;;;;34.93;15.03;;;11.00;99.90;;;;;;5094302;28;20176;-67
2022/10/03 07:55:25;;;;;;;25.20;14.50;;;11.10;99.90;;;;;;5096209;28;20165;-67
2022/10/03 07:58:25;;;;;;;25.80;14.57;;;11.10;99.90;;;;;;5096555;28;20181;-67
2022/10/03 08:00:59;;;;;;;22.37;12.27;;;11.20;99.90;;;;;;5096326;28;20303;-66
2022/10/03 08:03:46;;;;;;;29.53;13.77;;;11.40;99.90;;;;;;5095575;28;20184;-67
2022/10/03 08:06:30;;;;;;;32.13;13.93;;;11.60;99.90;;;;;;5099762;27;20614;-67
2022/10/03 08:09:10;;;;;;;27.83;13.50;;;11.90;99.90;;;;;;5136615;27;20156;-67
2022/10/03 08:11:58;;;;;;;23.87;13.87;;;12.10;99.90;;;;;;5135231;27;20191;-66
2022/10/03 08:14:48;;;;;;;24.47;11.97;;;12.30;99.90;;;;;;5136531;27;20207;-67
2022/10/03 08:17:42;;;;;;;25.73;12.93;;;12.40;99.90;;;;;;5136804;27;20168;-66
2022/10/03 08:20:33;;;;;;;24.07;13.07;;;12.70;99.90;;;;;;5136495;27;20199;-66
2022/10/03 08:23:01;;;;;;;22.70;12.75;;;12.60;99.90;;;;;;5136433;27;20196;-66
2022/10/03 08:25:46;;;;;;;24.60;11.90;;;12.70;99.90;;;;;;5136743;27;20172;-70
2022/10/03 08:28:49;;;;;;;24.57;12.50;;;12.80;99.90;;;;;;5128498;27;20274;-70
2022/10/03 08:31:34;;;;;;;26.77;11.88;;;12.80;99.90;;;;;;5114221;28;20195;-70
2022/10/03 08:34:27;;;;;;;28.50;12.00;;;12.90;99.90;;;;;;5116729;28;20160;-66
2022/10/03 08:37:19;;;;;;;23.37;10.67;;;13.00;99.90;;;;;;5123468;27;20232;-70
2022/10/03 08:39:59;;;;;;;27.80;12.45;;;13.20;99.90;;;;;;5135888;27;20172;-71
2022/10/03 08:42:34;;;;;;;28.98;10.77;;;13.50;99.90;;;;;;5135544;27;20214;-70
2022/10/03 08:45:37;;;;;;;22.95;11.00;;;13.70;99.90;;;;;;5135813;27;20175;-70
2022/10/03 08:48:26;;;;;;;21.02;9.75;;;13.90;99.90;;;;;;5135754;27;20167;-71
2022/10/03 08:51:18;;;;;;;20.65;9.45;;;14.10;99.90;;;;;;5136276;27;20648;-70
2022/10/03 08:53:53;;;;;;;16.00;9.02;;;14.20;99.90;;;;;;5118952;27;20187;-70
2022/10/03 08:56:53;;;;;;;17.88;9.10;;;14.40;99.90;;;;;;5135612;27;20170;-71
2022/10/03 08:59:49;;;;;;;20.48;8.95;;;14.30;99.90;;;;;;5116570;27;20255;-71
2022/10/03 09:02:27;;;;;;;17.85;8.63;;;14.10;99.90;;;;;;5115050;28;20191;-71
2022/10/03 09:05:18;;;;;;;15.80;8.20;;;13.80;99.90;;;;;;5114114;28;20239;-71
2022/10/03 09:08:14;;;;;;;18.27;8.52;;;13.60;99.90;;;;;;5129556;27;20267;-71
2022/10/03 09:11:13;;;;;;;18.13;8.52;;;13.50;99.90;;;;;;5135076;27;20274;-71
2022/10/03 09:14:16;;;;;;;16.35;7.68;;;13.50;99.90;;;;;;5135093;27;20259;-71
2022/10/03 09:17:05;;;;;;;11.70;6.25;;;13.50;99.90;;;;;;5135431;27;20163;-71
2022/10/03 09:19:52;;;;;;;13.60;5.68;;;13.60;99.90;;;;;;5133830;27;20581;-71
2022/10/03 09:22:46;;;;;;;23.10;5.60;;;13.70;99.90;;;;;;5133653;27;20651;-71
2022/10/03 09:25:33;;;;;;;12.32;5.05;;;13.70;99.90;;;;;;5133636;27;20167;-71
2022/10/03 09:28:36;;;;;;;13.27;5.20;;;13.80;99.90;;;;;;5128895;27;20614;-71
2022/10/03 09:31:24;;;;;;;14.55;5.72;;;13.70;99.90;;;;;;5114523;28;20188;-71
2022/10/03 09:34:20;;;;;;;14.60;5.15;;;13.70;99.90;;;;;;5113118;28;20180;-71
2022/10/03 09:36:57;;;;;;;13.82;5.20;;;13.70;99.90;;;;;;5120955;27;20188;-71
2022/10/03 09:40:12;;;;;;;13.55;5.32;;;13.80;99.90;;;;;;5134839;27;20523;-71
2022/10/03 09:42:56;;;;;;;18.17;5.65;;;13.80;99.90;;;;;;5106778;27;20805;-71
2022/10/03 09:45:40;;;;;;;17.42;5.85;;;13.80;99.90;;;;;;5134794;27;20547;-71
2022/10/03 09:48:12;;;;;;;14.48;5.80;;;13.80;99.90;;;;;;5133321;27;20179;-68
2022/10/03 09:51:02;;;;;;;13.95;5.53;;;14.00;99.90;;;;;;5134632;27;20198;-68
2022/10/03 09:53:31;;;;;;;9.48;4.93;;;14.00;99.90;;;;;;5134771;27;20516;-68
2022/10/03 09:56:24;;;;;;;13.63;4.60;;;14.10;99.90;;;;;;5133573;28;20219;-69
2022/10/03 09:59:14;;;;;;;11.05;4.20;;;14.10;99.90;;;;;;5121101;27;20180;-69
2022/10/03 10:01:50;;;;;;;17.73;4.97;;;14.20;99.90;;;;;;5112786;28;20193;-69
2022/10/03 10:04:39;;;;;;;10.82;4.95;;;14.40;99.90;;;;;;5114098;28;20187;-69
2022/10/03 10:07:32;;;;;;;15.70;4.43;;;14.40;99.90;;;;;;5123718;28;20182;-68
2022/10/03 10:10:28;;;;;;;15.68;6.20;;;14.30;99.90;;;;;;5134887;27;20163;-70
2022/10/03 10:13:31;;;;;;;9.52;4.82;;;14.20;99.90;;;;;;5134558;27;20530;-71
2022/10/03 10:16:34;;;;;;;19.92;4.32;;;14.30;99.90;;;;;;5135012;27;20171;-71
2022/10/03 10:19:18;;;;;;;13.70;4.95;;;14.30;99.90;;;;;;5137329;27;20175;-67
2022/10/03 10:22:00;;;;;;;18.02;4.72;;;14.30;99.90;;;;;;5138431;27;20187;-66
2022/10/03 10:24:31;;;;;;;15.10;4.22;;;14.30;99.90;;;;;;5138397;27;20222;-67
2022/10/03 10:27:19;;;;;;;11.75;3.60;;;14.30;99.90;;;;;;5137302;27;20195;-67
2022/10/03 10:30:04;;;;;;;9.82;3.33;;;14.40;99.90;;;;;;5097942;28;20517;-67
2022/10/03 10:33:18;;;;;;;5.78;3.53;;;14.40;99.90;;;;;;5097320;28;20153;-66
2022/10/03 10:36:21;;;;;;;8.45;3.60;;;14.40;99.90;;;;;;5097543;28;20149;-67
2022/10/03 10:39:07;;;;;;;10.02;3.53;;;14.40;99.90;;;;;;5097378;28;20172;-68
2022/10/03 10:41:54;;;;;;;9.50;3.85;;;14.50;99.90;;;;;;5085653;28;20228;-67
2022/10/03 10:44:38;;;;;;;9.27;3.75;;;14.60;99.90;;;;;;5097035;28;20185;-67
2022/10/03 10:47:35;;;;;;;9.63;3.80;;;14.50;99.90;;;;;;5096987;28;20161;-67
2022/10/03 10:50:27;;;;;;;10.95;3.90;;;14.60;99.90;;;;;;5096969;28;20183;-67
2022/10/03 10:52:59;;;;;;;7.72;3.67;;;14.60;99.90;;;;;;5096907;28;20271;-67
2022/10/03 10:55:52;;;;;;;13.02;4.35;;;14.60;99.90;;;;;;5096753;28;20250;-67
2022/10/03 10:58:39;;;;;;;12.15;3.80;;;14.70;99.90;;;;;;5105662;28;20267;-67
2022/10/03 11:01:26;;;;;;;12.27;3.95;;;14.80;99.90;;;;;;5117416;28;20590;-67
2022/10/03 11:04:26;;;;;;;9.40;4.03;;;14.90;99.90;;;;;;5115792;28;20686;-67
2022/10/03 11:07:22;;;;;;;6.78;3.20;;;15.10;99.90;;;;;;5124314;27;20183;-67
2022/10/03 11:10:18;;;;;;;9.40;3.50;;;15.10;99.90;;;;;;5136153;27;20160;-67
2022/10/03 11:13:05;;;;;;;9.38;3.53;;;15.30;99.90;;;;;;5137817;27;20172;-67
2022/10/03 11:15:53;;;;;;;10.50;3.40;;;15.30;99.90;;;;;;5136064;27;20167;-67
2022/10/03 11:18:31;;;;;;;10.02;3.47;;;15.20;99.90;;;;;;5137462;27;20631;-67
2022/10/03 11:21:17;;;;;;;10.48;3.60;;;15.20;99.90;;;;;;5137256;27;20227;-67
2022/10/03 11:24:10;;;;;;;8.65;3.22;;;15.10;99.90;;;;;;5137211;27;20184;-67
2022/10/03 11:27:01;;;;;;;7.80;3.58;;;15.00;99.90;;;;;;5136532;27;20161;-67
2022/10/03 11:29:45;;;;;;;7.40;3.10;;;15.00;99.90;;;;;;5118449;27;20184;-67
2022/10/03 11:32:48;;;;;;;9.00;3.80;;;15.20;99.90;;;;;;5116355;28;20200;-66
2022/10/03 11:36:00;;;;;;;7.82;3.63;;;15.60;99.90;;;;;;5116915;28;20160;-66
2022/10/03 11:38:38;;;;;;;8.82;3.30;;;15.80;99.90;;;;;;5096211;28;20161;-67
2022/10/03 11:41:39;;;;;;;5.82;2.90;;;16.20;99.90;;;;;;5095451;28;20196;-66
2022/10/03 11:44:20;;;;;;;5.88;3.13;;;16.40;99.90;;;;;;5095677;28;20548;-66
2022/10/03 11:46:57;;;;;;;8.52;3.35;;;16.50;99.90;;;;;;5095756;28;20686;-66
2022/10/03 11:49:47;;;;;;;5.72;3.00;;;16.40;99.90;;;;;;5096301;28;20487;-66
2022/10/03 11:52:13;;;;;;;6.97;3.00;;;16.40;99.90;;;;;;5095729;28;20258;-67
2022/10/03 11:54:44;;;;;;;9.35;3.03;;;16.20;99.90;;;;;;5095474;28;20634;-67
2022/10/03 11:57:21;;;;;;;10.20;2.75;;;16.10;99.90;;;;;;5096024;28;20630;-66
2022/10/03 12:00:12;;;;;;;6.13;2.90;;;16.00;99.90;;;;;;5095499;28;20609;-66
2022/10/03 12:02:43;;;;;;;9.95;2.42;;;15.90;99.90;;;;;;5096037;28;20188;-73
2022/10/03 12:05:35;;;;;;;9.48;2.97;;;15.70;99.90;;;;;;5095587;28;20154;-73
2022/10/03 12:11:40;;;;;;;8.13;4.35;;;15.70;99.90;;;;;;5136963;27;20560;-74
2022/10/03 12:14:08;;;;;;;5.72;2.72;;;16.10;99.90;;;;;;5120039;27;20216;-69
2022/10/03 12:16:56;;;;;;;7.18;2.92;;;16.40;99.90;;;;;;5137240;27;20575;-72
2022/10/03 12:19:46;;;;;;;7.82;3.20;;;16.40;99.90;;;;;;5136620;27;20543;-72
2022/10/03 12:22:24;;;;;;;10.43;2.90;;;16.40;99.90;;;;;;5136241;27;20192;-74
2022/10/03 12:25:00;;;;;;;6.30;2.80;;;16.70;99.90;;;;;;5135521;27;20221;-74
2022/10/03 12:27:41;;;;;;;9.30;3.20;;;16.80;99.90;;;;;;5135559;27;20607;-73
2022/10/03 12:30:16;;;;;;;7.20;2.55;;;16.60;99.90;;;;;;5116815;28;20157;-73
2022/10/03 12:33:09;;;;;;;5.65;2.60;;;16.70;99.90;;;;;;5116105;28;20171;-73
2022/10/03 12:35:49;;;;;;;4.13;2.40;;;16.70;99.90;;;;;;5115677;28;20189;-73
2022/10/03 12:38:36;;;;;;;7.03;2.88;;;16.80;99.90;;;;;;5134654;27;20655;-72
2022/10/03 12:41:18;;;;;;;5.18;2.97;;;16.80;99.90;;;;;;5134181;27;20195;-72
2022/10/03 12:44:03;;;;;;;6.13;2.45;;;17.10;99.90;;;;;;5136153;27;20248;-72
2022/10/03 12:46:36;;;;;;;9.05;2.95;;;17.00;99.90;;;;;;5135695;27;20565;-72
2022/10/03 12:49:09;;;;;;;8.93;2.90;;;17.10;99.90;;;;;;5136120;27;20589;-72
2022/10/03 12:51:59;;;;;;;3.53;2.50;;;16.90;99.90;;;;;;5135614;27;20215;-72
2022/10/03 12:54:54;;;;;;;8.25;3.25;;;17.20;99.90;;;;;;5135620;27;20160;-73
2022/10/03 12:57:37;;;;;;;9.27;3.08;;;17.10;99.90;;;;;;5130867;27;20270;-72
2022/10/03 13:00:32;;;;;;;8.60;2.97;;;17.30;99.90;;;;;;5115502;28;20160;-73
2022/10/03 13:03:39;;;;;;;6.05;2.67;;;17.60;99.90;;;;;;5115048;28;20212;-72
2022/10/03 13:06:35;;;;;;;6.70;2.80;;;17.60;99.90;;;;;;5114134;27;20252;-72
2022/10/03 13:09:20;;;;;;;4.32;2.72;;;18.00;99.90;;;;;;5133923;27;20164;-74
2022/10/03 13:12:15;;;;;;;4.85;2.50;;;17.90;99.90;;;;;;5135189;27;20244;-72
2022/10/03 13:15:01;;;;;;;5.00;2.60;;;17.50;99.90;;;;;;5108063;27;20660;-72
2022/10/03 13:17:40;;;;;;;5.03;2.60;;;17.30;99.90;;;;;;5133994;27;20214;-72
2022/10/03 13:20:22;;;;;;;7.55;2.95;;;17.10;99.90;;;;;;5136412;27;20156;-72
2022/10/03 13:23:32;;;;;;;9.10;2.80;;;16.80;99.90;;;;;;5135537;27;20224;-71
2022/10/03 13:26:07;;;;;;;6.47;3.05;;;16.60;99.90;;;;;;5134615;27;20179;-70
2022/10/03 13:28:54;;;;;;;6.32;2.58;;;16.40;99.90;;;;;;5135763;27;20144;-74
2022/10/03 13:31:32;;;;;;;6.50;3.10;;;16.30;99.90;;;;;;5135615;27;20211;-71
2022/10/03 13:34:16;;;;;;;10.73;3.20;;;16.40;99.90;;;;;;5135969;27;20194;-74
2022/10/03 13:36:52;;;;;;;3.75;2.53;;;16.50;99.90;;;;;;5129639;27;20190;-73
2022/10/03 13:39:36;;;;;;;4.30;2.67;;;16.50;99.90;;;;;;5114786;28;20160;-73
2022/10/03 13:42:36;;;;;;;6.95;2.60;;;16.60;99.90;;;;;;5114449;28;20204;-73
2022/10/03 13:45:12;;;;;;;4.13;2.20;;;16.60;99.90;;;;;;5113311;28;20664;-70
2022/10/03 13:48:10;;;;;;;3.08;2.42;;;16.70;99.90;;;;;;5114836;28;20160;-70
2022/10/03 13:51:01;;;;;;;4.68;3.35;;;17.00;99.90;;;;;;5109925;28;20207;-65
2022/10/03 13:53:58;;;;;;;4.95;2.60;;;16.80;99.90;;;;;;5117543;28;20210;-69
2022/10/03 13:56:49;;;;;;;4.30;2.70;;;17.00;99.90;;;;;;5115426;28;20172;-65
2022/10/03 13:59:22;;;;;;;6.68;2.60;;;16.80;99.90;;;;;;5112839;28;20588;-65
2022/10/03 14:02:25;;;;;;;5.75;2.88;;;16.80;99.90;;;;;;5114278;28;20200;-65
2022/10/03 14:05:06;;;;;;;3.00;2.50;;;16.70;99.90;;;;;;5084707;28;20215;-65
2022/10/03 14:07:46;;;;;;;4.35;2.40;;;16.80;99.90;;;;;;5125508;28;20187;-66
2022/10/03 14:10:39;;;;;;;7.07;2.50;;;16.70;99.90;;;;;;5134240;27;20190;-68
2022/10/03 14:13:32;;;;;;;4.43;2.38;;;16.80;99.90;;;;;;5134749;27;20163;-70
2022/10/03 14:16:20;;;;;;;2.30;2.10;;;16.80;99.90;;;;;;5134492;27;20160;-70
2022/10/03 14:19:15;;;;;;;6.25;2.42;;;16.80;99.90;;;;;;5134778;27;20151;-69
2022/10/03 14:22:28;;;;;;;4.25;2.40;;;16.70;99.90;;;;;;5096329;27;20232;-69
2022/10/03 14:25:22;;;;;;;5.20;2.40;;;16.60;99.90;;;;;;5124622;28;20268;-69
2022/10/03 14:28:06;;;;;;;5.50;2.70;;;16.60;99.90;;;;;;5128381;28;20184;-69
2022/10/03 14:31:08;;;;;;;3.83;2.63;;;16.60;99.90;;;;;;5113660;28;20664;-69
2022/10/03 14:33:50;;;;;;;7.70;2.47;;;16.60;99.90;;;;;;5114070;28;20682;-69
2022/10/03 14:36:46;;;;;;;6.78;2.50;;;16.40;99.90;;;;;;5116539;28;20500;-68
2022/10/03 14:39:39;;;;;;;5.90;2.78;;;16.30;99.90;;;;;;5134977;27;20148;-71